sensor_id;sensor_type;location;lat;lon;timestamp;temperature;humidity
16974;DHT22;8603;46.944;7.412;2022-08-25T03:19:21;13.80;99.90
16974;DHT22;8603;46.944;7.412;2022-08-25T03:27:30;13.70;99.90
16974;DHT22;8603;46.944;7.412;2022-08-25T03:30:20;13.70;99.90
16974;DHT22;8603;46.944;7.412;2022-08-25T03:35:42;13.60;99.90
16974;DHT22;8603;46.944;7.412;2022-08-25T03:38:19;13.60;99.90
16974;DHT22;8603;46.944;7.412;2022-08-25T03:41:21;13.60;99.90
16974;DHT22;8603;46.944;7.412;2022-08-25T03:43:54;13.60;99.90
16974;DHT22;8603;46.944;7.412;2022-08-25T03:46:29;13.60;99.90
16974;DHT22;8603;46.944;7.412;2022-08-25T03:49:23;13.60;99.90
16974;DHT22;8603;46.944;7.412;2022-08-25T03:55:20;13.60;99.90
16974;DHT22;8603;46.944;7.412;2022-08-25T04:00:49;13.50;99.90
16974;DHT22;8603;46.944;7.412;2022-08-25T04:03:46;13.50;99.90
16974;DHT22;8603;46.944;7.412;2022-08-25T04:06:55;13.50;99.90
16974;DHT22;8603;46.944;7.412;2022-08-25T04:09:24;13.50;99.90
16974;DHT22;8603;46.944;7.412;2022-08-25T04:11:58;13.50;99.90
16974;DHT22;8603;46.944;7.412;2022-08-25T04:14:27;13.50;99.90
16974;DHT22;8603;46.944;7.412;2022-08-25T04:17:08;13.50;99.90
16974;DHT22;8603;46.944;7.412;2022-08-25T04:19:34;13.50;99.90
16974;DHT22;8603;46.944;7.412;2022-08-25T04:22:00;13.40;99.90
16974;DHT22;8603;46.944;7.412;2022-08-25T04:24:41;13.50;99.90
16974;DHT22;8603;46.944;7.412;2022-08-25T04:27:50;13.40;99.90
16974;DHT22;8603;46.944;7.412;2022-08-25T04:30:32;13.40;99.90
16974;DHT22;8603;46.944;7.412;2022-08-25T04:33:36;13.40;99.90
16974;DHT22;8603;46.944;7.412;2022-08-25T04:36:20;13.40;99.90
16974;DHT22;8603;46.944;7.412;2022-08-25T04:39:10;13.40;99.90
16974;DHT22;8603;46.944;7.412;2022-08-25T04:42:30;13.30;99.90
16974;DHT22;8603;46.944;7.412;2022-08-25T04:45:19;13.40;99.90
16974;DHT22;8603;46.944;7.412;2022-08-25T04:47:54;13.30;99.90
16974;DHT22;8603;46.944;7.412;2022-08-25T05:01:02;13.30;99.90
16974;DHT22;8603;46.944;7.412;2022-08-25T05:03:28;13.40;99.90
16974;DHT22;8603;46.944;7.412;2022-08-25T05:06:34;13.40;99.90
16974;DHT22;8603;46.944;7.412;2022-08-25T05:12:23;13.90;99.90
16974;DHT22;8603;46.944;7.412;2022-08-25T05:14:51;14.60;99.90
16974;DHT22;8603;46.944;7.412;2022-08-25T05:17:17;15.40;99.90
16974;DHT22;8603;46.944;7.412;2022-08-25T05:19:45;16.40;99.90
16974;DHT22;8603;46.944;7.412;2022-08-25T05:22:11;17.30;99.90
16974;DHT22;8603;46.944;7.412;2022-08-25T05:24:36;18.10;99.90
16974;DHT22;8603;46.944;7.412;2022-08-25T05:27:02;18.80;99.90
16974;DHT22;8603;46.944;7.412;2022-08-25T05:29:28;19.30;99.90
16974;DHT22;8603;46.944;7.412;2022-08-25T05:31:54;19.60;99.90
16974;DHT22;8603;46.944;7.412;2022-08-25T05:34:20;19.50;99.90
16974;DHT22;8603;46.944;7.412;2022-08-25T05:36:47;19.10;99.90
16974;DHT22;8603;46.944;7.412;2022-08-25T05:39:13;19.00;99.90
16974;DHT22;8603;46.944;7.412;2022-08-25T05:41:39;18.60;99.90
16974;DHT22;8603;46.944;7.412;2022-08-25T05:44:05;18.20;99.90
16974;DHT22;8603;46.944;7.412;2022-08-25T05:46:31;17.90;99.90
16974;DHT22;8603;46.944;7.412;2022-08-25T05:49:00;17.50;99.90
16974;DHT22;8603;46.944;7.412;2022-08-25T05:51:26;17.30;99.90
16974;DHT22;8603;46.944;7.412;2022-08-25T05:53:52;17.10;99.90
16974;DHT22;8603;46.944;7.412;2022-08-25T05:56:23;16.90;99.90
16974;DHT22;8603;46.944;7.412;2022-08-25T05:58:51;16.80;99.90
16974;DHT22;8603;46.944;7.412;2022-08-25T06:01:27;16.70;99.90
16974;DHT22;8603;46.944;7.412;2022-08-25T06:04:14;16.60;99.90
16974;DHT22;8603;46.944;7.412;2022-08-25T06:06:42;16.60;99.90
16974;DHT22;8603;46.944;7.412;2022-08-25T06:09:08;16.60;99.90
16974;DHT22;8603;46.944;7.412;2022-08-25T06:11:36;16.70;99.90
16974;DHT22;8603;46.944;7.412;2022-08-25T06:14:03;16.90;99.90
16974;DHT22;8603;46.944;7.412;2022-08-25T06:16:31;17.20;99.90
16974;DHT22;8603;46.944;7.412;2022-08-25T06:19:09;17.60;99.90
16974;DHT22;8603;46.944;7.412;2022-08-25T06:21:47;18.00;99.90
16974;DHT22;8603;46.944;7.412;2022-08-25T06:27:20;18.60;99.90
16974;DHT22;8603;46.944;7.412;2022-08-25T06:29:52;19.20;99.90
16974;DHT22;8603;46.944;7.412;2022-08-25T06:35:58;20.40;99.90
16974;DHT22;8603;46.944;7.412;2022-08-25T06:38:27;20.80;99.90
16974;DHT22;8603;46.944;7.412;2022-08-25T06:40:56;21.00;99.90
16974;DHT22;8603;46.944;7.412;2022-08-25T06:43:22;21.10;99.90
16974;DHT22;8603;46.944;7.412;2022-08-25T06:45:56;21.30;99.90
16974;DHT22;8603;46.944;7.412;2022-08-25T06:51:30;22.80;99.90
16974;DHT22;8603;46.944;7.412;2022-08-25T06:57:30;24.90;99.90
16974;DHT22;8603;46.944;7.412;2022-08-25T07:00:14;26.00;99.90
16974;DHT22;8603;46.944;7.412;2022-08-25T07:02:53;27.20;99.90
16974;DHT22;8603;46.944;7.412;2022-08-25T07:05:57;28.80;99.90
16974;DHT22;8603;46.944;7.412;2022-08-25T07:08:33;30.10;99.90
16974;DHT22;8603;46.944;7.412;2022-08-25T07:11:15;31.60;99.90
16974;DHT22;8603;46.944;7.412;2022-08-25T07:13:50;32.80;99.90
16974;DHT22;8603;46.944;7.412;2022-08-25T07:16:25;33.00;97.80
16974;DHT22;8603;46.944;7.412;2022-08-25T07:18:53;33.80;97.00
16974;DHT22;8603;46.944;7.412;2022-08-25T07:21:23;34.60;94.60
16974;DHT22;8603;46.944;7.412;2022-08-25T07:23:54;35.30;93.30
16974;DHT22;8603;46.944;7.412;2022-08-25T07:26:27;36.10;92.00
16974;DHT22;8603;46.944;7.412;2022-08-25T07:28:57;36.60;90.50
16974;DHT22;8603;46.944;7.412;2022-08-25T07:31:26;36.90;88.00
16974;DHT22;8603;46.944;7.412;2022-08-25T07:34:08;37.30;85.90
16974;DHT22;8603;46.944;7.412;2022-08-25T07:36:53;37.70;83.40
16974;DHT22;8603;46.944;7.412;2022-08-25T07:39:22;37.80;81.20
16974;DHT22;8603;46.944;7.412;2022-08-25T07:42:11;38.00;81.60
16974;DHT22;8603;46.944;7.412;2022-08-25T07:44:42;38.20;80.50
16974;DHT22;8603;46.944;7.412;2022-08-25T07:47:13;38.60;79.90
16974;DHT22;8603;46.944;7.412;2022-08-25T07:49:43;38.80;79.20
16974;DHT22;8603;46.944;7.412;2022-08-25T07:52:09;39.00;77.80
16974;DHT22;8603;46.944;7.412;2022-08-25T07:54:35;38.90;76.70
16974;DHT22;8603;46.944;7.412;2022-08-25T07:57:07;39.00;76.30
16974;DHT22;8603;46.944;7.412;2022-08-25T07:59:33;38.80;75.30
16974;DHT22;8603;46.944;7.412;2022-08-25T08:01:59;38.90;76.80
16974;DHT22;8603;46.944;7.412;2022-08-25T08:04:25;38.80;75.00
16974;DHT22;8603;46.944;7.412;2022-08-25T08:06:53;38.80;74.50
16974;DHT22;8603;46.944;7.412;2022-08-25T08:09:18;38.40;75.00
16974;DHT22;8603;46.944;7.412;2022-08-25T08:11:44;38.40;75.50
16974;DHT22;8603;46.944;7.412;2022-08-25T08:14:10;38.40;75.90
16974;DHT22;8603;46.944;7.412;2022-08-25T08:16:39;38.60;75.60
16974;DHT22;8603;46.944;7.412;2022-08-25T08:19:05;38.50;73.30
16974;DHT22;8603;46.944;7.412;2022-08-25T08:21:40;38.40;74.10
16974;DHT22;8603;46.944;7.412;2022-08-25T08:24:10;38.30;74.10
16974;DHT22;8603;46.944;7.412;2022-08-25T08:26:36;38.40;74.30
16974;DHT22;8603;46.944;7.412;2022-08-25T08:29:02;38.20;73.40
16974;DHT22;8603;46.944;7.412;2022-08-25T08:31:28;37.80;75.80
16974;DHT22;8603;46.944;7.412;2022-08-25T08:33:55;37.50;74.90
16974;DHT22;8603;46.944;7.412;2022-08-25T08:36:22;37.30;76.30
16974;DHT22;8603;46.944;7.412;2022-08-25T08:38:48;37.10;76.20
16974;DHT22;8603;46.944;7.412;2022-08-25T08:41:53;36.90;75.50
16974;DHT22;8603;46.944;7.412;2022-08-25T08:47:48;36.30;75.60
16974;DHT22;8603;46.944;7.412;2022-08-25T08:53:08;36.10;76.40
16974;DHT22;8603;46.944;7.412;2022-08-25T08:55:54;36.00;76.60
16974;DHT22;8603;46.944;7.412;2022-08-25T08:58:44;35.80;76.70
16974;DHT22;8603;46.944;7.412;2022-08-25T09:01:15;35.70;76.50
16974;DHT22;8603;46.944;7.412;2022-08-25T09:03:46;35.60;77.60
16974;DHT22;8603;46.944;7.412;2022-08-25T09:06:21;35.30;77.50
16974;DHT22;8603;46.944;7.412;2022-08-25T09:08:48;35.10;77.70
16974;DHT22;8603;46.944;7.412;2022-08-25T09:17:26;34.90;77.20
16974;DHT22;8603;46.944;7.412;2022-08-25T09:20:05;34.60;77.70
16974;DHT22;8603;46.944;7.412;2022-08-25T09:23:19;34.50;78.90
16974;DHT22;8603;46.944;7.412;2022-08-25T09:25:59;34.50;78.40
16974;DHT22;8603;46.944;7.412;2022-08-25T09:28:49;34.30;78.10
16974;DHT22;8603;46.944;7.412;2022-08-25T09:33:53;33.90;78.90
16974;DHT22;8603;46.944;7.412;2022-08-25T09:36:21;33.80;79.60
16974;DHT22;8603;46.944;7.412;2022-08-25T09:38:47;33.70;78.60
16974;DHT22;8603;46.944;7.412;2022-08-25T09:41:16;33.60;78.70
16974;DHT22;8603;46.944;7.412;2022-08-25T09:43:51;33.40;79.20
16974;DHT22;8603;46.944;7.412;2022-08-25T09:46:28;33.10;79.50
16974;DHT22;8603;46.944;7.412;2022-08-25T09:49:10;33.00;80.50
16974;DHT22;8603;46.944;7.412;2022-08-25T09:51:37;32.90;80.60
16974;DHT22;8603;46.944;7.412;2022-08-25T09:56:57;32.40;81.30
16974;DHT22;8603;46.944;7.412;2022-08-25T09:59:31;32.10;82.50
16974;DHT22;8603;46.944;7.412;2022-08-25T10:04:46;31.90;84.60
16974;DHT22;8603;46.944;7.412;2022-08-25T10:07:29;31.70;84.00
16974;DHT22;8603;46.944;7.412;2022-08-25T10:10:02;31.60;85.20
16974;DHT22;8603;46.944;7.412;2022-08-25T10:12:37;31.50;85.20
16974;DHT22;8603;46.944;7.412;2022-08-25T10:15:19;31.50;84.60
16974;DHT22;8603;46.944;7.412;2022-08-25T10:17:45;31.30;83.20
16974;DHT22;8603;46.944;7.412;2022-08-25T10:20:26;31.10;84.80
16974;DHT22;8603;46.944;7.412;2022-08-25T10:23:11;31.00;85.10
16974;DHT22;8603;46.944;7.412;2022-08-25T10:25:43;30.70;85.60
16974;DHT22;8603;46.944;7.412;2022-08-25T10:28:27;30.50;85.20
16974;DHT22;8603;46.944;7.412;2022-08-25T10:33:30;30.20;86.00
16974;DHT22;8603;46.944;7.412;2022-08-25T10:38:41;29.80;86.20
16974;DHT22;8603;46.944;7.412;2022-08-25T10:44:14;29.70;87.50
16974;DHT22;8603;46.944;7.412;2022-08-25T10:49:47;29.80;86.90
16974;DHT22;8603;46.944;7.412;2022-08-25T10:52:22;29.80;87.80
16974;DHT22;8603;46.944;7.412;2022-08-25T10:55:00;29.80;88.80
16974;DHT22;8603;46.944;7.412;2022-08-25T10:57:44;29.80;88.40
16974;DHT22;8603;46.944;7.412;2022-08-25T11:00:20;29.80;88.00
16974;DHT22;8603;46.944;7.412;2022-08-25T11:03:18;29.80;86.40
16974;DHT22;8603;46.944;7.412;2022-08-25T11:05:58;29.60;87.40
16974;DHT22;8603;46.944;7.412;2022-08-25T11:08:43;29.70;89.00
16974;DHT22;8603;46.944;7.412;2022-08-25T11:11:25;29.70;88.00
16974;DHT22;8603;46.944;7.412;2022-08-25T11:19:49;29.70;88.20
16974;DHT22;8603;46.944;7.412;2022-08-25T11:22:24;29.80;88.10
16974;DHT22;8603;46.944;7.412;2022-08-25T11:25:19;29.80;87.90
16974;DHT22;8603;46.944;7.412;2022-08-25T11:30:19;29.80;88.20
16974;DHT22;8603;46.944;7.412;2022-08-25T11:32:53;29.80;88.70
16974;DHT22;8603;46.944;7.412;2022-08-25T11:35:38;29.80;89.00
16974;DHT22;8603;46.944;7.412;2022-08-25T11:38:29;29.80;88.50
16974;DHT22;8603;46.944;7.412;2022-08-25T11:41:19;29.80;88.40
16974;DHT22;8603;46.944;7.412;2022-08-25T11:46:51;29.80;89.70
16974;DHT22;8603;46.944;7.412;2022-08-25T11:49:52;29.80;90.00
16974;DHT22;8603;46.944;7.412;2022-08-25T11:58:21;29.90;88.20
16974;DHT22;8603;46.944;7.412;2022-08-25T12:00:44;30.00;88.30
16974;DHT22;8603;46.944;7.412;2022-08-25T12:06:25;30.10;86.80
16974;DHT22;8603;46.944;7.412;2022-08-25T12:11:52;30.10;86.70
16974;DHT22;8603;46.944;7.412;2022-08-25T12:21:51;30.30;86.10
16974;DHT22;8603;46.944;7.412;2022-08-25T12:24:46;30.30;87.70
16974;DHT22;8603;46.944;7.412;2022-08-25T12:30:00;30.50;85.50
16974;DHT22;8603;46.944;7.412;2022-08-25T12:32:52;30.50;83.20
16974;DHT22;8603;46.944;7.412;2022-08-25T12:35:36;30.50;84.00
16974;DHT22;8603;46.944;7.412;2022-08-25T12:38:15;30.60;84.20
16974;DHT22;8603;46.944;7.412;2022-08-25T12:49:03;30.90;83.60
16974;DHT22;8603;46.944;7.412;2022-08-25T12:56:41;31.00;82.40
16974;DHT22;8603;46.944;7.412;2022-08-25T12:59:22;31.00;82.80
16974;DHT22;8603;46.944;7.412;2022-08-25T13:12:51;31.20;81.20
16974;DHT22;8603;46.944;7.412;2022-08-25T13:15:39;31.30;81.70
16974;DHT22;8603;46.944;7.412;2022-08-25T13:18:19;31.30;80.60
16974;DHT22;8603;46.944;7.412;2022-08-25T13:20:51;31.30;80.40
16974;DHT22;8603;46.944;7.412;2022-08-25T13:23:23;31.10;79.90
16974;DHT22;8603;46.944;7.412;2022-08-25T13:25:54;31.10;80.40
16974;DHT22;8603;46.944;7.412;2022-08-25T13:28:33;31.00;80.70
16974;DHT22;8603;46.944;7.412;2022-08-25T13:31:19;31.00;80.90
16974;DHT22;8603;46.944;7.412;2022-08-25T13:34:07;31.00;79.80
16974;DHT22;8603;46.944;7.412;2022-08-25T13:36:47;31.00;79.40
16974;DHT22;8603;46.944;7.412;2022-08-25T13:39:35;31.00;80.40
16974;DHT22;8603;46.944;7.412;2022-08-25T13:42:02;31.20;80.40
16974;DHT22;8603;46.944;7.412;2022-08-25T13:44:30;31.20;79.50
16974;DHT22;8603;46.944;7.412;2022-08-25T13:47:12;31.20;80.00
16974;DHT22;8603;46.944;7.412;2022-08-25T13:49:46;31.30;80.60
16974;DHT22;8603;46.944;7.412;2022-08-25T13:52:26;31.40;80.80
16974;DHT22;8603;46.944;7.412;2022-08-25T13:54:58;31.50;79.60
16974;DHT22;8603;46.944;7.412;2022-08-25T13:57:52;31.50;80.00
16974;DHT22;8603;46.944;7.412;2022-08-25T14:00:32;31.50;79.90
16974;DHT22;8603;46.944;7.412;2022-08-25T14:03:05;31.30;80.40
16974;DHT22;8603;46.944;7.412;2022-08-25T14:08:38;31.30;80.80
16974;DHT22;8603;46.944;7.412;2022-08-25T14:16:25;30.90;79.60
16974;DHT22;8603;46.944;7.412;2022-08-25T14:18:55;30.70;80.10
16974;DHT22;8603;46.944;7.412;2022-08-25T14:21:27;30.70;80.60
16974;DHT22;8603;46.944;7.412;2022-08-25T14:23:54;30.70;81.50
16974;DHT22;8603;46.944;7.412;2022-08-25T14:26:20;30.90;80.70
16974;DHT22;8603;46.944;7.412;2022-08-25T14:28:46;31.00;80.00
16974;DHT22;8603;46.944;7.412;2022-08-25T14:31:25;31.10;79.60
16974;DHT22;8603;46.944;7.412;2022-08-25T14:33:56;31.00;80.50
16974;DHT22;8603;46.944;7.412;2022-08-25T14:36:22;30.90;80.10
16974;DHT22;8603;46.944;7.412;2022-08-25T14:38:48;30.90;80.20
16974;DHT22;8603;46.944;7.412;2022-08-25T14:41:14;30.90;79.40
16974;DHT22;8603;46.944;7.412;2022-08-25T14:43:40;31.00;79.40
16974;DHT22;8603;46.944;7.412;2022-08-25T14:46:20;31.00;80.30
16974;DHT22;8603;46.944;7.412;2022-08-25T14:48:49;31.00;80.00
16974;DHT22;8603;46.944;7.412;2022-08-25T14:51:38;31.10;80.40
16974;DHT22;8603;46.944;7.412;2022-08-25T14:54:09;31.20;80.60
16974;DHT22;8603;46.944;7.412;2022-08-25T14:56:35;31.30;79.40
16974;DHT22;8603;46.944;7.412;2022-08-25T14:59:04;31.30;79.10
16974;DHT22;8603;46.944;7.412;2022-08-25T15:01:30;31.30;79.90
16974;DHT22;8603;46.944;7.412;2022-08-25T15:04:07;31.30;80.70
16974;DHT22;8603;46.944;7.412;2022-08-25T15:06:35;31.30;80.20
16974;DHT22;8603;46.944;7.412;2022-08-25T15:09:02;31.30;80.00
16974;DHT22;8603;46.944;7.412;2022-08-25T15:11:52;31.30;79.90
16974;DHT22;8603;46.944;7.412;2022-08-25T15:14:20;31.30;80.20
16974;DHT22;8603;46.944;7.412;2022-08-25T15:16:49;31.30;79.50
16974;DHT22;8603;46.944;7.412;2022-08-25T15:19:19;31.40;79.30
16974;DHT22;8603;46.944;7.412;2022-08-25T15:21:46;31.40;79.30
16974;DHT22;8603;46.944;7.412;2022-08-25T15:24:13;31.40;78.50
16974;DHT22;8603;46.944;7.412;2022-08-25T15:29:16;31.30;78.50
16974;DHT22;8603;46.944;7.412;2022-08-25T15:31:42;31.40;79.10
16974;DHT22;8603;46.944;7.412;2022-08-25T15:34:08;31.40;79.70
16974;DHT22;8603;46.944;7.412;2022-08-25T15:36:34;31.40;79.00
16974;DHT22;8603;46.944;7.412;2022-08-25T15:39:04;31.50;79.40
16974;DHT22;8603;46.944;7.412;2022-08-25T15:41:40;31.50;79.40
16974;DHT22;8603;46.944;7.412;2022-08-25T15:44:07;31.50;78.70
16974;DHT22;8603;46.944;7.412;2022-08-25T15:46:35;31.40;77.40
16974;DHT22;8603;46.944;7.412;2022-08-25T15:49:02;31.40;78.00
16974;DHT22;8603;46.944;7.412;2022-08-25T15:51:28;31.30;78.40
16974;DHT22;8603;46.944;7.412;2022-08-25T15:53:55;31.30;78.30
16974;DHT22;8603;46.944;7.412;2022-08-25T15:56:21;31.20;78.70
16974;DHT22;8603;46.944;7.412;2022-08-25T15:58:48;31.20;79.00
16974;DHT22;8603;46.944;7.412;2022-08-25T16:01:20;31.10;80.20
16974;DHT22;8603;46.944;7.412;2022-08-25T16:03:50;31.00;79.70
16974;DHT22;8603;46.944;7.412;2022-08-25T16:06:19;31.00;80.10
16974;DHT22;8603;46.944;7.412;2022-08-25T16:08:45;31.00;79.30
16974;DHT22;8603;46.944;7.412;2022-08-25T16:11:20;31.00;80.20
16974;DHT22;8603;46.944;7.412;2022-08-25T16:13:47;30.90;80.40
16974;DHT22;8603;46.944;7.412;2022-08-25T16:16:14;30.70;80.10
16974;DHT22;8603;46.944;7.412;2022-08-25T16:18:41;30.60;80.20
16974;DHT22;8603;46.944;7.412;2022-08-25T16:21:09;30.60;80.40
16974;DHT22;8603;46.944;7.412;2022-08-25T16:23:35;30.40;81.80
16974;DHT22;8603;46.944;7.412;2022-08-25T16:26:06;30.30;82.00
16974;DHT22;8603;46.944;7.412;2022-08-25T16:28:42;30.20;82.50
16974;DHT22;8603;46.944;7.412;2022-08-25T16:31:13;30.00;82.80
16974;DHT22;8603;46.944;7.412;2022-08-25T16:33:45;29.90;83.20
16974;DHT22;8603;46.944;7.412;2022-08-25T16:36:16;29.80;83.20
16974;DHT22;8603;46.944;7.412;2022-08-25T16:38:46;29.70;83.40
16974;DHT22;8603;46.944;7.412;2022-08-25T16:41:22;29.60;83.60
16974;DHT22;8603;46.944;7.412;2022-08-25T16:43:48;29.50;84.40
16974;DHT22;8603;46.944;7.412;2022-08-25T16:46:16;29.40;84.20
16974;DHT22;8603;46.944;7.412;2022-08-25T16:49:03;29.40;84.70
16974;DHT22;8603;46.944;7.412;2022-08-25T16:51:30;29.30;85.00
16974;DHT22;8603;46.944;7.412;2022-08-25T16:54:00;29.10;85.20
16974;DHT22;8603;46.944;7.412;2022-08-25T16:56:44;29.00;85.40
16974;DHT22;8603;46.944;7.412;2022-08-25T16:59:12;29.00;85.50
16974;DHT22;8603;46.944;7.412;2022-08-25T17:01:38;28.90;85.90
16974;DHT22;8603;46.944;7.412;2022-08-25T17:04:06;28.80;86.00
16974;DHT22;8603;46.944;7.412;2022-08-25T17:06:39;28.70;86.10
16974;DHT22;8603;46.944;7.412;2022-08-25T17:09:07;28.70;86.50
16974;DHT22;8603;46.944;7.412;2022-08-25T17:11:39;28.60;86.80
16974;DHT22;8603;46.944;7.412;2022-08-25T17:14:08;28.50;86.40
16974;DHT22;8603;46.944;7.412;2022-08-25T17:16:34;28.40;86.50
16974;DHT22;8603;46.944;7.412;2022-08-25T17:19:02;28.40;86.90
16974;DHT22;8603;46.944;7.412;2022-08-25T17:21:31;28.30;86.70
16974;DHT22;8603;46.944;7.412;2022-08-25T17:23:58;28.20;87.00
16974;DHT22;8603;46.944;7.412;2022-08-25T17:26:25;28.20;87.60
16974;DHT22;8603;46.944;7.412;2022-08-25T17:28:51;28.10;87.70
16974;DHT22;8603;46.944;7.412;2022-08-25T17:31:18;28.00;87.70
16974;DHT22;8603;46.944;7.412;2022-08-25T17:33:44;28.00;88.40
16974;DHT22;8603;46.944;7.412;2022-08-25T17:36:11;27.90;88.90
16974;DHT22;8603;46.944;7.412;2022-08-25T17:38:37;27.80;89.30
16974;DHT22;8603;46.944;7.412;2022-08-25T17:41:05;27.70;89.60
16974;DHT22;8603;46.944;7.412;2022-08-25T17:43:37;27.70;90.10
16974;DHT22;8603;46.944;7.412;2022-08-25T17:46:25;27.50;90.20
16974;DHT22;8603;46.944;7.412;2022-08-25T17:49:13;27.40;90.40
16974;DHT22;8603;46.944;7.412;2022-08-25T17:51:47;27.30;90.60
16974;DHT22;8603;46.944;7.412;2022-08-25T17:54:13;27.20;90.80
16974;DHT22;8603;46.944;7.412;2022-08-25T17:56:39;27.10;91.10
16974;DHT22;8603;46.944;7.412;2022-08-25T17:59:05;27.10;91.30
16974;DHT22;8603;46.944;7.412;2022-08-25T18:01:37;27.00;91.40
16974;DHT22;8603;46.944;7.412;2022-08-25T18:04:03;26.80;92.00
16974;DHT22;8603;46.944;7.412;2022-08-25T18:06:30;26.70;92.00
16974;DHT22;8603;46.944;7.412;2022-08-25T18:08:57;26.70;92.30
16974;DHT22;8603;46.944;7.412;2022-08-25T18:11:26;26.50;92.30
16974;DHT22;8603;46.944;7.412;2022-08-25T18:13:54;26.40;92.20
16974;DHT22;8603;46.944;7.412;2022-08-25T18:16:20;26.30;92.60
16974;DHT22;8603;46.944;7.412;2022-08-25T18:18:50;26.20;93.00
16974;DHT22;8603;46.944;7.412;2022-08-25T18:21:17;26.20;93.60
16974;DHT22;8603;46.944;7.412;2022-08-25T18:23:46;26.10;93.70
16974;DHT22;8603;46.944;7.412;2022-08-25T18:26:15;25.90;93.70
16974;DHT22;8603;46.944;7.412;2022-08-25T18:28:41;25.90;94.00
16974;DHT22;8603;46.944;7.412;2022-08-25T18:31:10;25.70;94.00
16974;DHT22;8603;46.944;7.412;2022-08-25T18:33:37;25.60;94.40
16974;DHT22;8603;46.944;7.412;2022-08-25T18:36:06;25.50;95.20
16974;DHT22;8603;46.944;7.412;2022-08-25T18:38:38;25.30;95.50
16974;DHT22;8603;46.944;7.412;2022-08-25T18:41:24;25.10;95.70
16974;DHT22;8603;46.944;7.412;2022-08-25T18:43:50;25.00;96.10
16974;DHT22;8603;46.944;7.412;2022-08-25T18:46:20;24.90;96.30
16974;DHT22;8603;46.944;7.412;2022-08-25T18:48:46;24.80;96.40
16974;DHT22;8603;46.944;7.412;2022-08-25T18:51:11;24.70;96.60
16974;DHT22;8603;46.944;7.412;2022-08-25T18:53:37;24.60;97.00
16974;DHT22;8603;46.944;7.412;2022-08-25T18:56:04;24.50;98.10
16974;DHT22;8603;46.944;7.412;2022-08-25T18:58:30;24.40;98.20
16974;DHT22;8603;46.944;7.412;2022-08-25T19:00:59;24.30;98.40
16974;DHT22;8603;46.944;7.412;2022-08-25T19:03:25;24.20;98.60
16974;DHT22;8603;46.944;7.412;2022-08-25T19:05:54;24.10;99.00
16974;DHT22;8603;46.944;7.412;2022-08-25T19:08:20;24.00;99.30
16974;DHT22;8603;46.944;7.412;2022-08-25T19:10:49;24.00;99.80
16974;DHT22;8603;46.944;7.412;2022-08-25T19:13:15;23.90;99.90
16974;DHT22;8603;46.944;7.412;2022-08-25T19:15:41;23.80;99.90
16974;DHT22;8603;46.944;7.412;2022-08-25T19:18:08;23.70;99.90
16974;DHT22;8603;46.944;7.412;2022-08-25T19:20:34;23.60;99.90
16974;DHT22;8603;46.944;7.412;2022-08-25T19:23:00;23.50;99.90
16974;DHT22;8603;46.944;7.412;2022-08-25T19:25:27;23.50;99.90
16974;DHT22;8603;46.944;7.412;2022-08-25T19:27:54;23.40;99.90
16974;DHT22;8603;46.944;7.412;2022-08-25T19:30:22;23.40;99.90
16974;DHT22;8603;46.944;7.412;2022-08-25T19:32:52;23.30;99.90
16974;DHT22;8603;46.944;7.412;2022-08-25T19:35:27;23.30;99.90
16974;DHT22;8603;46.944;7.412;2022-08-25T19:37:54;23.20;99.90
16974;DHT22;8603;46.944;7.412;2022-08-25T19:40:21;23.20;99.90
16974;DHT22;8603;46.944;7.412;2022-08-25T19:42:47;23.20;99.90
16974;DHT22;8603;46.944;7.412;2022-08-25T19:45:18;23.20;99.90
16974;DHT22;8603;46.944;7.412;2022-08-25T19:47:52;23.10;99.90
16974;DHT22;8603;46.944;7.412;2022-08-25T19:50:28;23.10;99.90
16974;DHT22;8603;46.944;7.412;2022-08-25T19:52:54;23.10;99.90
16974;DHT22;8603;46.944;7.412;2022-08-25T19:55:20;23.10;99.90
16974;DHT22;8603;46.944;7.412;2022-08-25T19:57:46;23.10;99.90
16974;DHT22;8603;46.944;7.412;2022-08-25T20:00:16;23.10;99.90
16974;DHT22;8603;46.944;7.412;2022-08-25T20:02:43;23.10;99.90
16974;DHT22;8603;46.944;7.412;2022-08-25T20:05:10;23.10;99.90
16974;DHT22;8603;46.944;7.412;2022-08-25T20:07:37;23.10;99.90
16974;DHT22;8603;46.944;7.412;2022-08-25T20:10:05;23.00;99.90
16974;DHT22;8603;46.944;7.412;2022-08-25T20:12:31;23.00;99.90
16974;DHT22;8603;46.944;7.412;2022-08-25T20:14:57;23.00;99.90
16974;DHT22;8603;46.944;7.412;2022-08-25T20:17:23;23.00;99.90
16974;DHT22;8603;46.944;7.412;2022-08-25T20:19:49;23.00;99.90
16974;DHT22;8603;46.944;7.412;2022-08-25T20:22:14;23.00;99.90
16974;DHT22;8603;46.944;7.412;2022-08-25T20:24:40;22.90;99.90
16974;DHT22;8603;46.944;7.412;2022-08-25T20:27:13;22.90;99.90
16974;DHT22;8603;46.944;7.412;2022-08-25T20:30:11;22.90;99.90
16974;DHT22;8603;46.944;7.412;2022-08-25T20:32:37;23.00;99.90
16974;DHT22;8603;46.944;7.412;2022-08-25T20:35:37;22.90;99.90
16974;DHT22;8603;46.944;7.412;2022-08-25T20:39:07;22.90;99.90
16974;DHT22;8603;46.944;7.412;2022-08-25T20:42:10;22.90;99.90
16974;DHT22;8603;46.944;7.412;2022-08-25T20:44:51;22.80;99.90
16974;DHT22;8603;46.944;7.412;2022-08-25T20:47:18;22.80;99.90
16974;DHT22;8603;46.944;7.412;2022-08-25T20:49:47;22.70;99.90
16974;DHT22;8603;46.944;7.412;2022-08-25T20:52:14;22.60;99.90
16974;DHT22;8603;46.944;7.412;2022-08-25T20:54:40;22.60;99.90
16974;DHT22;8603;46.944;7.412;2022-08-25T20:57:11;22.50;99.90
16974;DHT22;8603;46.944;7.412;2022-08-25T21:00:15;22.40;99.90
16974;DHT22;8603;46.944;7.412;2022-08-25T21:02:43;22.30;99.90
16974;DHT22;8603;46.944;7.412;2022-08-25T21:05:11;22.20;99.90
16974;DHT22;8603;46.944;7.412;2022-08-25T21:07:36;22.10;99.90
16974;DHT22;8603;46.944;7.412;2022-08-25T21:10:07;22.00;99.90
16974;DHT22;8603;46.944;7.412;2022-08-25T21:12:33;21.90;99.90
16974;DHT22;8603;46.944;7.412;2022-08-25T21:14:59;21.80;99.90
16974;DHT22;8603;46.944;7.412;2022-08-25T21:17:26;21.80;99.90
16974;DHT22;8603;46.944;7.412;2022-08-25T21:19:53;21.70;99.90
16974;DHT22;8603;46.944;7.412;2022-08-25T21:22:21;21.60;99.90
16974;DHT22;8603;46.944;7.412;2022-08-25T21:24:47;21.60;99.90
16974;DHT22;8603;46.944;7.412;2022-08-25T21:27:12;21.50;99.90
16974;DHT22;8603;46.944;7.412;2022-08-25T21:29:44;21.40;99.90
16974;DHT22;8603;46.944;7.412;2022-08-25T21:32:12;21.30;99.90
16974;DHT22;8603;46.944;7.412;2022-08-25T21:35:18;21.30;99.90
16974;DHT22;8603;46.944;7.412;2022-08-25T21:38:07;21.20;99.90
16974;DHT22;8603;46.944;7.412;2022-08-25T21:40:34;21.20;99.90
16974;DHT22;8603;46.944;7.412;2022-08-25T21:43:05;21.00;99.90
16974;DHT22;8603;46.944;7.412;2022-08-25T21:45:40;21.00;99.90
16974;DHT22;8603;46.944;7.412;2022-08-25T21:48:08;20.90;99.90
16974;DHT22;8603;46.944;7.412;2022-08-25T21:50:42;20.80;99.90
16974;DHT22;8603;46.944;7.412;2022-08-25T21:53:17;20.70;99.90
16974;DHT22;8603;46.944;7.412;2022-08-25T21:55:43;20.60;99.90
16974;DHT22;8603;46.944;7.412;2022-08-25T21:58:11;20.60;99.90
16974;DHT22;8603;46.944;7.412;2022-08-25T22:00:37;20.50;99.90
16974;DHT22;8603;46.944;7.412;2022-08-25T22:03:03;20.40;99.90